createdAt,value
2022-11-25T00:00:34.473Z,13.27
2022-11-25T00:03:01.595Z,15.00
2022-11-25T00:05:28.703Z,13.77
2022-11-25T00:07:55.848Z,11.57
2022-11-25T00:10:22.960Z,12.60
2022-11-25T00:12:50.008Z,11.43
2022-11-25T00:15:17.131Z,12.53
2022-11-25T00:17:44.176Z,10.87
2022-11-25T00:20:11.364Z,14.00
2022-11-25T00:22:38.426Z,11.17
2022-11-25T00:25:05.669Z,12.47
2022-11-25T00:27:32.781Z,11.67
2022-11-25T00:29:59.836Z,8.77
2022-11-25T00:32:26.925Z,9.63
2022-11-25T00:34:53.952Z,8.97
2022-11-25T00:37:21.066Z,11.87
2022-11-25T00:39:48.261Z,9.20
2022-11-25T00:42:34.271Z,10.77
2022-11-25T00:45:01.309Z,9.33
2022-11-25T00:47:29.466Z,12.10
2022-11-25T00:49:56.490Z,8.33
2022-11-25T00:52:24.938Z,8.13
2022-11-25T00:54:52.652Z,8.20
2022-11-25T00:57:20.958Z,9.23
2022-11-25T00:59:48.261Z,8.40
2022-11-25T01:02:16.083Z,10.40
2022-11-25T01:04:43.212Z,7.33
2022-11-25T01:07:10.427Z,9.40
2022-11-25T01:09:37.666Z,7.73
2022-11-25T01:12:05.240Z,7.80
2022-11-25T01:14:32.487Z,9.13
2022-11-25T01:16:59.766Z,8.53
2022-11-25T01:19:26.956Z,10.83
2022-11-25T01:21:54.034Z,6.80
2022-11-25T01:24:21.093Z,7.57
2022-11-25T01:26:48.254Z,7.27
2022-11-25T01:29:17.345Z,7.83
2022-11-25T01:31:44.995Z,6.97
2022-11-25T01:34:14.198Z,7.40
2022-11-25T01:36:41.377Z,7.90
2022-11-25T01:39:08.724Z,8.40
2022-11-25T01:41:36.205Z,7.10
2022-11-25T01:44:18.747Z,5.63
2022-11-25T01:46:45.745Z,6.50
2022-11-25T01:49:25.821Z,5.73
2022-11-25T01:52:04.944Z,8.07
2022-11-25T01:54:36.569Z,10.47
2022-11-25T01:57:12.839Z,6.70
2022-11-25T01:59:42.567Z,6.83
2022-11-25T02:02:09.830Z,6.63
2022-11-25T02:04:38.175Z,8.17
2022-11-25T02:07:08.801Z,6.23
2022-11-25T02:09:36.868Z,6.97
2022-11-25T02:12:04.234Z,7.87
2022-11-25T02:14:31.305Z,6.60
2022-11-25T02:17:00.375Z,7.90
2022-11-25T02:19:37.567Z,4.73
2022-11-25T02:22:08.257Z,6.03
2022-11-25T02:24:38.806Z,6.90
2022-11-25T02:27:05.991Z,6.10
2022-11-25T02:29:33.858Z,8.47
2022-11-25T02:32:01.136Z,6.47
2022-11-25T02:34:28.319Z,5.57
2022-11-25T02:36:55.915Z,4.93
2022-11-25T02:39:23.254Z,6.50
2022-11-25T02:41:51.950Z,7.53
2022-11-25T02:44:20.273Z,7.33
2022-11-25T02:46:47.415Z,6.40
2022-11-25T02:49:14.603Z,9.80
2022-11-25T02:51:43.839Z,7.73
2022-11-25T02:54:11.725Z,7.37
2022-11-25T02:56:40.107Z,8.30
2022-11-25T02:59:07.747Z,7.73
2022-11-25T03:01:35.539Z,8.00
2022-11-25T03:04:03.174Z,6.73
2022-11-25T03:06:30.448Z,8.10
2022-11-25T03:08:58.422Z,8.63
2022-11-25T03:11:45.851Z,6.13
2022-11-25T03:14:13.237Z,7.83
2022-11-25T03:16:40.376Z,7.37
2022-11-25T03:19:08.458Z,6.40
2022-11-25T03:21:35.514Z,7.63
2022-11-25T03:24:02.572Z,8.43
2022-11-25T03:26:29.688Z,7.57
2022-11-25T03:28:56.713Z,6.97
2022-11-25T03:31:23.858Z,7.93
2022-11-25T03:33:50.959Z,10.67
2022-11-25T03:36:18.048Z,8.83
2022-11-25T03:38:45.077Z,6.87
2022-11-25T03:41:12.142Z,8.00
2022-11-25T03:43:39.268Z,8.63
2022-11-25T03:46:06.508Z,8.07
2022-11-25T03:48:33.596Z,9.23
2022-11-25T03:51:00.644Z,9.40
2022-11-25T03:53:27.710Z,8.07
2022-11-25T03:55:54.808Z,9.93
2022-11-25T03:58:21.891Z,7.90
2022-11-25T04:00:49.023Z,9.70
2022-11-25T04:03:16.071Z,10.17
2022-11-25T04:05:43.204Z,8.90
2022-11-25T04:08:10.289Z,10.13
2022-11-25T04:10:37.414Z,9.33
2022-11-25T04:13:04.544Z,12.57
2022-11-25T04:15:31.606Z,11.40
2022-11-25T04:17:58.685Z,8.20
2022-11-25T04:20:25.751Z,8.00
2022-11-25T04:22:52.797Z,9.37
2022-11-25T04:25:19.891Z,8.73
2022-11-25T04:27:46.995Z,10.07
2022-11-25T04:30:14.286Z,11.87
2022-11-25T04:32:41.340Z,7.77
2022-11-25T04:35:08.638Z,9.30
2022-11-25T04:37:35.741Z,7.30
2022-11-25T04:40:03.043Z,9.77
2022-11-25T04:42:34.230Z,7.60
2022-11-25T04:45:22.092Z,8.73
2022-11-25T04:47:49.338Z,7.90
2022-11-25T04:50:18.600Z,8.27
2022-11-25T04:52:45.723Z,6.27
2022-11-25T04:55:12.786Z,9.00
2022-11-25T04:57:40.055Z,8.10
2022-11-25T05:00:08.069Z,7.17
2022-11-25T05:02:35.263Z,8.27
2022-11-25T05:05:02.613Z,9.90
2022-11-25T05:07:30.174Z,10.23
2022-11-25T05:09:57.722Z,7.40
2022-11-25T05:12:27.053Z,6.77
2022-11-25T05:14:54.364Z,9.60
2022-11-25T05:17:23.121Z,6.67
2022-11-25T05:19:50.726Z,7.97
2022-11-25T05:22:19.235Z,8.43
2022-11-25T05:24:46.363Z,6.13
2022-11-25T05:27:13.527Z,7.07
2022-11-25T05:29:40.625Z,7.33
2022-11-25T05:32:07.978Z,8.00
2022-11-25T05:34:35.451Z,7.60
2022-11-25T05:37:02.785Z,8.63
2022-11-25T05:39:29.937Z,8.17
2022-11-25T05:41:57.045Z,7.23
2022-11-25T05:44:24.170Z,6.17
2022-11-25T05:46:51.327Z,6.93
2022-11-25T05:49:19.087Z,4.63
2022-11-25T05:51:46.210Z,5.80
2022-11-25T05:54:13.638Z,7.63
2022-11-25T05:56:40.778Z,7.30
2022-11-25T05:59:07.880Z,6.80
2022-11-25T06:01:35.031Z,5.43
2022-11-25T06:04:02.775Z,7.53
2022-11-25T06:06:30.314Z,4.90
2022-11-25T06:08:57.406Z,7.33
2022-11-25T06:11:25.574Z,11.33
2022-11-25T06:13:52.994Z,8.33
2022-11-25T06:16:21.715Z,6.37
2022-11-25T06:18:49.358Z,7.67
2022-11-25T06:21:16.762Z,7.37
2022-11-25T06:23:45.444Z,6.03
2022-11-25T06:26:18.057Z,7.63
2022-11-25T06:28:45.480Z,6.20
2022-11-25T06:31:17.380Z,6.53
2022-11-25T06:33:46.776Z,5.77
2022-11-25T06:36:17.358Z,6.27
2022-11-25T06:38:48.269Z,6.40
2022-11-25T06:41:16.749Z,9.97
2022-11-25T06:43:43.806Z,6.97
2022-11-25T06:46:12.366Z,6.80
2022-11-25T06:48:39.480Z,9.10
2022-11-25T06:51:08.002Z,7.63
2022-11-25T06:53:36.071Z,7.23
2022-11-25T06:56:03.302Z,6.50
2022-11-25T06:58:35.899Z,6.57
2022-11-25T07:01:03.507Z,8.63
2022-11-25T07:03:31.051Z,8.90
2022-11-25T07:05:58.614Z,8.83
2022-11-25T07:08:29.574Z,9.73
2022-11-25T07:11:05.399Z,8.17
2022-11-25T07:13:32.560Z,7.27
2022-11-25T07:16:03.877Z,7.17
2022-11-25T07:18:35.025Z,8.40
2022-11-25T07:21:09.505Z,8.27
2022-11-25T07:23:37.205Z,9.83
2022-11-25T07:26:12.393Z,8.33
2022-11-25T07:28:40.120Z,8.67
2022-11-25T07:31:32.849Z,9.20
2022-11-25T07:34:04.933Z,9.20
2022-11-25T07:36:32.814Z,10.43
2022-11-25T07:39:00.902Z,10.33
2022-11-25T07:41:28.587Z,7.93
2022-11-25T07:43:58.366Z,8.57
2022-11-25T07:46:27.412Z,9.57
2022-11-25T07:48:55.793Z,10.67
2022-11-25T07:51:24.227Z,9.67
2022-11-25T07:53:51.736Z,10.23
2022-11-25T07:56:19.213Z,7.70
2022-11-25T07:58:46.573Z,10.13
2022-11-25T08:01:15.091Z,10.60
2022-11-25T08:03:42.996Z,14.03
2022-11-25T08:06:14.717Z,8.80
2022-11-25T08:08:42.483Z,10.27
2022-11-25T08:11:10.904Z,9.77
2022-11-25T08:13:38.166Z,11.60
2022-11-25T08:16:05.930Z,8.90
2022-11-25T08:18:33.184Z,11.10
2022-11-25T08:21:01.314Z,10.23
2022-11-25T08:23:28.578Z,10.43
2022-11-25T08:25:55.641Z,14.30
2022-11-25T08:28:22.755Z,11.40
2022-11-25T08:30:50.063Z,10.33
2022-11-25T08:33:17.373Z,13.60
2022-11-25T08:35:44.466Z,9.97
2022-11-25T08:38:12.484Z,9.57
2022-11-25T08:40:39.591Z,11.67
2022-11-25T08:43:06.695Z,9.37
2022-11-25T08:45:34.961Z,10.67
2022-11-25T08:48:02.058Z,10.23
2022-11-25T08:50:29.129Z,14.40
2022-11-25T08:52:57.508Z,11.17
2022-11-25T08:55:26.333Z,9.83
2022-11-25T08:57:54.277Z,11.90
2022-11-25T09:00:22.440Z,10.13
2022-11-25T09:02:49.871Z,11.33
2022-11-25T09:05:17.643Z,10.27
2022-11-25T09:07:44.932Z,8.03
2022-11-25T09:10:17.040Z,11.20
2022-11-25T09:12:44.139Z,10.60
2022-11-25T09:15:11.578Z,13.53
2022-11-25T09:17:38.675Z,9.40
2022-11-25T09:20:06.212Z,10.63
2022-11-25T09:22:33.338Z,10.77
2022-11-25T09:25:00.641Z,15.27
2022-11-25T09:27:27.730Z,11.77
2022-11-25T09:29:54.793Z,11.37
2022-11-25T09:32:21.843Z,10.03
2022-11-25T09:34:48.925Z,10.73
2022-11-25T09:37:16.110Z,11.33
2022-11-25T09:39:43.216Z,10.77
2022-11-25T09:42:47.839Z,14.07
2022-11-25T09:45:41.504Z,10.80
2022-11-25T09:48:18.216Z,12.23
2022-11-25T09:50:48.272Z,14.47
2022-11-25T09:53:24.261Z,10.13
2022-11-25T09:55:53.988Z,11.07
2022-11-25T09:58:27.438Z,11.10
2022-11-25T10:00:54.690Z,10.90
2022-11-25T10:03:32.334Z,12.50
2022-11-25T10:06:18.085Z,13.57
2022-11-25T10:08:47.714Z,9.73
2022-11-25T10:11:43.489Z,9.07
2022-11-25T10:14:16.380Z,9.10
2022-11-25T10:16:48.538Z,10.87
2022-11-25T10:19:35.876Z,11.67
2022-11-25T10:22:14.080Z,8.83
2022-11-25T10:24:41.593Z,9.67
2022-11-25T10:27:12.468Z,9.87
2022-11-25T10:29:39.592Z,9.43
2022-11-25T10:32:22.821Z,11.70
2022-11-25T10:34:53.275Z,9.37
2022-11-25T10:37:26.195Z,9.53
2022-11-25T10:39:53.238Z,9.97
2022-11-25T10:42:24.759Z,11.60
2022-11-25T10:44:52.086Z,9.07
2022-11-25T10:47:25.379Z,10.57
2022-11-25T10:50:01.430Z,9.33
2022-11-25T10:52:29.852Z,10.30
2022-11-25T10:54:58.501Z,8.90
2022-11-25T10:57:28.681Z,8.93
2022-11-25T10:59:59.565Z,8.97
2022-11-25T11:02:28.640Z,8.03
2022-11-25T11:04:58.810Z,7.97
2022-11-25T11:07:30.780Z,7.87
2022-11-25T11:10:13.725Z,8.70
2022-11-25T11:12:51.752Z,8.63
2022-11-25T11:15:23.368Z,7.47
2022-11-25T11:17:50.563Z,8.53
2022-11-25T11:20:17.658Z,9.67
2022-11-25T11:22:55.255Z,8.20
2022-11-25T11:25:25.445Z,8.43
2022-11-25T11:27:52.531Z,7.73
2022-11-25T11:30:21.685Z,6.97
2022-11-25T11:32:59.584Z,11.03
2022-11-25T11:35:29.414Z,8.87
2022-11-25T11:38:00.046Z,9.87
2022-11-25T11:40:33.515Z,8.47
2022-11-25T11:43:06.420Z,8.80
2022-11-25T11:45:45.424Z,8.07
2022-11-25T11:48:21.586Z,7.70
2022-11-25T11:50:51.358Z,7.70
2022-11-25T11:53:27.402Z,7.23
2022-11-25T11:56:33.740Z,7.80
2022-11-25T11:58:59.889Z,7.53
2022-11-25T12:01:32.691Z,8.13
2022-11-25T12:04:11.950Z,7.30
2022-11-25T12:06:39.305Z,7.53
2022-11-25T12:09:10.861Z,8.30
2022-11-25T12:11:40.126Z,7.30
2022-11-25T12:14:22.205Z,8.90
2022-11-25T12:16:51.522Z,8.20
2022-11-25T12:19:27.730Z,7.60
2022-11-25T12:22:01.494Z,7.77
2022-11-25T12:24:31.457Z,6.80
2022-11-25T12:27:02.579Z,7.30
2022-11-25T12:30:05.437Z,10.67
2022-11-25T12:32:38.459Z,8.57
2022-11-25T12:35:25.863Z,8.40
2022-11-25T12:38:05.103Z,11.23
2022-11-25T12:40:32.393Z,6.47
2022-11-25T12:43:07.419Z,7.80
2022-11-25T12:45:34.542Z,8.53
2022-11-25T12:48:01.607Z,10.57
2022-11-25T12:50:41.367Z,11.40
2022-11-25T12:53:40.898Z,9.13
2022-11-25T12:56:15.772Z,9.97
2022-11-25T12:58:49.445Z,7.33
2022-11-25T13:01:26.224Z,11.73
2022-11-25T13:04:00.642Z,11.70
2022-11-25T13:06:38.727Z,9.73
2022-11-25T13:09:24.540Z,9.13
2022-11-25T13:12:28.061Z,9.43
2022-11-25T13:15:01.795Z,7.73
2022-11-25T13:17:29.971Z,9.83
2022-11-25T13:20:15.902Z,10.53
2022-11-25T13:22:43.015Z,8.17
2022-11-25T13:25:25.986Z,10.53
2022-11-25T13:27:55.784Z,9.83
2022-11-25T13:30:34.933Z,9.43
2022-11-25T13:33:13.810Z,8.63
2022-11-25T13:35:43.646Z,9.33
2022-11-25T13:38:30.693Z,8.47
2022-11-25T13:41:02.469Z,6.97
2022-11-25T13:43:29.628Z,8.67
2022-11-25T13:45:57.136Z,6.67
2022-11-25T13:48:26.528Z,10.63
2022-11-25T13:51:16.418Z,7.40
2022-11-25T13:53:51.488Z,7.73
2022-11-25T13:56:21.324Z,9.20
2022-11-25T13:59:06.988Z,8.27
2022-11-25T14:01:34.072Z,7.57
2022-11-25T14:04:06.881Z,7.83
2022-11-25T14:06:36.875Z,8.47
2022-11-25T14:09:05.446Z,8.00
2022-11-25T14:11:51.400Z,10.13
2022-11-25T14:14:24.565Z,10.40
2022-11-25T14:17:00.518Z,8.93
2022-11-25T14:19:53.116Z,9.97
2022-11-25T14:22:35.651Z,11.17
2022-11-25T14:25:14.515Z,10.47
2022-11-25T14:27:45.624Z,10.30
2022-11-25T14:30:13.089Z,8.57
2022-11-25T14:32:49.147Z,11.40
2022-11-25T14:35:19.053Z,11.80
2022-11-25T14:38:13.843Z,8.60
2022-11-25T14:41:07.061Z,9.43
2022-11-25T14:43:39.822Z,11.50
2022-11-25T14:46:11.348Z,9.90
2022-11-25T14:48:38.639Z,12.13
2022-11-25T14:51:10.127Z,14.53
2022-11-25T14:53:43.081Z,9.73
2022-11-25T14:56:15.601Z,10.27
2022-11-25T14:58:46.972Z,10.67
2022-11-25T15:01:20.052Z,10.80
2022-11-25T15:03:50.892Z,10.87
2022-11-25T15:06:22.259Z,10.53
2022-11-25T15:08:56.709Z,11.63
2022-11-25T15:11:25.344Z,10.57
2022-11-25T15:14:12.623Z,10.53
2022-11-25T15:16:41.235Z,13.10
2022-11-25T15:19:16.850Z,13.90
2022-11-25T15:22:20.864Z,13.10
2022-11-25T15:24:32.596Z,14.43
2022-11-25T15:27:01.115Z,13.43
2022-11-25T15:29:28.896Z,11.17
2022-11-25T15:31:56.575Z,12.30
2022-11-25T15:34:24.463Z,11.87
2022-11-25T15:39:39.777Z,16.93
2022-11-25T15:42:08.874Z,15.47
2022-11-25T15:44:41.421Z,13.87
2022-11-25T15:47:17.063Z,15.73
2022-11-25T15:49:48.145Z,15.33
2022-11-25T15:52:19.925Z,13.37
2022-11-25T15:54:49.357Z,13.40
2022-11-25T15:57:22.521Z,13.97
2022-11-25T15:59:55.638Z,14.97
2022-11-25T16:02:34.887Z,13.63
2022-11-25T16:05:14.467Z,15.43
2022-11-25T16:07:50.675Z,15.80
2022-11-25T16:10:18.025Z,14.07
2022-11-25T16:12:45.100Z,12.80
2022-11-25T16:15:18.472Z,18.30
2022-11-25T16:17:45.607Z,13.23
2022-11-25T16:20:19.406Z,15.40
2022-11-25T16:22:47.140Z,14.80
2022-11-25T16:25:16.932Z,13.53
2022-11-25T16:27:44.944Z,12.00
2022-11-25T16:30:20.990Z,16.50
2022-11-25T16:32:48.051Z,15.27
2022-11-25T16:35:16.598Z,12.73
2022-11-25T16:37:48.550Z,15.43
2022-11-25T16:40:17.336Z,19.13
2022-11-25T16:42:47.701Z,16.27
2022-11-25T16:45:25.297Z,15.63
2022-11-25T16:47:52.517Z,13.93
2022-11-25T16:50:20.317Z,16.40
2022-11-25T16:52:47.452Z,14.30
2022-11-25T16:55:14.524Z,15.50
2022-11-25T16:57:43.550Z,14.30
2022-11-25T17:00:16.679Z,14.60
2022-11-25T17:02:44.798Z,17.77
2022-11-25T17:05:32.348Z,17.30
2022-11-25T17:07:59.444Z,19.13
2022-11-25T17:10:27.201Z,19.03
2022-11-25T17:12:54.376Z,17.97
2022-11-25T17:15:24.401Z,16.60
2022-11-25T17:17:51.893Z,17.57
2022-11-25T17:20:21.533Z,13.63
2022-11-25T17:22:49.060Z,18.07
2022-11-25T17:25:16.190Z,17.03
2022-11-25T17:27:45.817Z,17.57
2022-11-25T17:30:18.407Z,16.73
2022-11-25T17:32:45.945Z,14.97
2022-11-25T17:35:20.224Z,17.33
2022-11-25T17:37:47.767Z,14.27
2022-11-25T17:40:14.960Z,16.90
2022-11-25T17:42:42.590Z,16.53
2022-11-25T17:45:14.338Z,13.93
2022-11-25T17:47:41.812Z,18.17
2022-11-25T17:50:14.730Z,17.73
2022-11-25T17:52:41.770Z,17.83
2022-11-25T17:55:09.115Z,16.53
2022-11-25T17:57:36.184Z,16.47
2022-11-25T18:00:03.456Z,16.37
2022-11-25T18:02:30.550Z,21.27
2022-11-25T18:04:57.671Z,19.73
2022-11-25T18:07:24.803Z,15.87
2022-11-25T18:09:51.875Z,19.33
2022-11-25T18:12:25.757Z,17.97
2022-11-25T18:14:52.846Z,23.53
2022-11-25T18:17:20.009Z,18.60
2022-11-25T18:19:54.676Z,15.60
2022-11-25T18:22:23.754Z,16.60
2022-11-25T18:24:50.898Z,16.17
2022-11-25T18:27:22.736Z,21.13
2022-11-25T18:29:50.447Z,20.43
2022-11-25T18:32:17.676Z,18.50
2022-11-25T18:34:44.870Z,21.60
2022-11-25T18:37:12.411Z,18.83
2022-11-25T18:39:39.627Z,18.90
2022-11-25T18:42:07.416Z,17.80
2022-11-25T18:44:37.951Z,20.70
2022-11-25T18:47:05.475Z,19.33
2022-11-25T18:49:32.531Z,17.27
2022-11-25T18:51:59.619Z,16.70
2022-11-25T18:54:26.661Z,18.97
2022-11-25T18:56:53.725Z,18.97
2022-11-25T18:59:26.133Z,17.17
2022-11-25T19:01:53.279Z,17.80
2022-11-25T19:04:20.362Z,23.07
2022-11-25T19:06:47.410Z,17.53
2022-11-25T19:09:14.479Z,19.87
2022-11-25T19:11:44.076Z,15.90
2022-11-25T19:14:14.053Z,22.93
2022-11-25T19:16:41.891Z,22.40
2022-11-25T19:19:11.550Z,18.80
2022-11-25T19:21:38.613Z,21.80
2022-11-25T19:24:07.460Z,18.87
2022-11-25T19:26:37.322Z,18.03
2022-11-25T19:29:11.512Z,18.73
2022-11-25T19:31:38.680Z,19.17
2022-11-25T19:34:05.818Z,19.30
2022-11-25T19:36:34.912Z,20.63
2022-11-25T19:39:01.972Z,21.00
2022-11-25T19:41:29.052Z,17.83
2022-11-25T19:43:56.275Z,24.73
2022-11-25T19:46:46.214Z,25.37
2022-11-25T19:49:19.857Z,21.53
2022-11-25T19:51:47.709Z,24.20
2022-11-25T19:54:15.746Z,18.83
2022-11-25T19:56:45.667Z,18.00
2022-11-25T19:59:12.716Z,22.00
2022-11-25T20:01:41.474Z,21.50
2022-11-25T20:04:09.197Z,22.60
2022-11-25T20:06:36.761Z,19.20
2022-11-25T20:09:07.831Z,19.77
2022-11-25T20:11:36.493Z,22.90
2022-11-25T20:14:04.303Z,20.00
2022-11-25T20:16:40.705Z,24.83
2022-11-25T20:19:08.585Z,22.27
2022-11-25T20:21:37.658Z,20.33
2022-11-25T20:24:06.166Z,20.00
2022-11-25T20:26:37.392Z,22.13
2022-11-25T20:29:24.518Z,23.50
2022-11-25T20:31:56.011Z,20.33
2022-11-25T20:34:24.085Z,21.87
2022-11-25T20:36:51.133Z,22.07
2022-11-25T20:39:19.651Z,23.60
2022-11-25T20:41:48.284Z,20.10
2022-11-25T20:44:15.389Z,24.17
2022-11-25T20:46:42.425Z,18.77
2022-11-25T20:49:19.759Z,21.53
2022-11-25T20:51:46.905Z,20.80
2022-11-25T20:54:14.388Z,21.57
2022-11-25T20:56:41.463Z,22.53
2022-11-25T20:59:21.933Z,21.23
2022-11-25T21:01:49.941Z,23.20
2022-11-25T21:04:18.266Z,20.20
2022-11-25T21:06:45.335Z,23.57
2022-11-25T21:09:20.171Z,21.37
2022-11-25T21:11:48.103Z,20.83
2022-11-25T21:14:16.272Z,20.90
2022-11-25T21:16:43.520Z,19.87
2022-11-25T21:19:10.732Z,23.00
2022-11-25T21:21:39.652Z,18.33
2022-11-25T21:24:10.932Z,19.07
2022-11-25T21:26:38.041Z,19.77
2022-11-25T21:29:05.089Z,21.73
2022-11-25T21:31:32.249Z,17.50
2022-11-25T21:33:59.880Z,22.33
2022-11-25T21:36:29.108Z,19.53
2022-11-25T21:39:06.580Z,21.50
2022-11-25T21:41:34.168Z,24.00
2022-11-25T21:44:01.524Z,17.00
2022-11-25T21:46:28.835Z,21.13
2022-11-25T21:48:56.027Z,17.60
2022-11-25T21:51:24.367Z,21.00
2022-11-25T21:53:52.176Z,23.27
2022-11-25T21:56:24.184Z,20.93
2022-11-25T21:58:51.457Z,23.87
2022-11-25T22:01:18.968Z,21.63
2022-11-25T22:03:46.103Z,21.37
2022-11-25T22:06:23.968Z,22.57
2022-11-25T22:08:51.064Z,19.83
2022-11-25T22:11:20.166Z,18.17
2022-11-25T22:13:48.676Z,18.50
2022-11-25T22:16:17.329Z,18.57
2022-11-25T22:18:44.609Z,18.17
2022-11-25T22:21:15.540Z,16.93
2022-11-25T22:23:43.048Z,15.97
2022-11-25T22:26:17.996Z,18.20
2022-11-25T22:28:46.517Z,17.80
2022-11-25T22:31:14.241Z,14.83
2022-11-25T22:33:41.313Z,17.47
2022-11-25T22:36:19.694Z,13.63
2022-11-25T22:38:46.898Z,16.13
2022-11-25T22:41:14.175Z,16.77
2022-11-25T22:43:45.058Z,17.10
2022-11-25T22:46:12.193Z,19.00
2022-11-25T22:48:39.615Z,17.80
2022-11-25T22:51:06.859Z,18.97
2022-11-25T22:53:33.970Z,21.90
2022-11-25T22:56:01.009Z,17.90
2022-11-25T22:58:28.661Z,14.73
2022-11-25T23:00:58.991Z,17.10
2022-11-25T23:03:29.179Z,21.07
2022-11-25T23:05:56.334Z,13.80
2022-11-25T23:08:28.263Z,13.93
2022-11-25T23:10:55.684Z,14.60
2022-11-25T23:13:22.851Z,16.37
2022-11-25T23:15:57.368Z,15.27
2022-11-25T23:18:27.460Z,14.80
2022-11-25T23:20:54.569Z,12.60
2022-11-25T23:23:29.180Z,12.27
2022-11-25T23:25:56.854Z,12.83
2022-11-25T23:28:24.142Z,12.17
2022-11-25T23:30:57.994Z,11.33
2022-11-25T23:33:28.688Z,11.70
2022-11-25T23:35:55.918Z,9.70
2022-11-25T23:38:24.447Z,13.10
2022-11-25T23:40:51.597Z,12.17
2022-11-25T23:43:18.657Z,9.37
2022-11-25T23:45:51.096Z,10.20
2022-11-25T23:48:19.137Z,13.87
2022-11-25T23:50:46.639Z,10.50
2022-11-25T23:53:17.910Z,10.77
2022-11-25T23:55:45.067Z,9.33
2022-11-25T23:58:15.491Z,10.00
